Погода Новое Каргановона 2 недели

Тверская область, Россия

27 мая-09 июня
  • 27мая
    Сегодня
    +11°
    +25°
    Небольшая облачность
    ВремяПогодаТемператураВлажностьДавлениеВетер, м/сВероятность осадков
    00:00Небольшая облачность+13°C87 %754 мм2.5 м/с2 %
    03:00Ясно и безоблачно+10°C58 %755 мм3.1 м/с2 %
    06:00Пасмурно, сплошная облачность+10°C64 %755 мм2.3 м/с2 %
    09:00Ясно и безоблачно+18°C54 %756 мм2.0 м/с2 %
    12:00Небольшая облачность+22°C42 %755 мм2.1 м/с2 %
    15:00Небольшая облачность+24°C34 %754 мм1.5 м/с2 %
    18:00Ясно и безоблачно+24°C36 %753 мм2.0 м/с2 %
    21:00Ясно и безоблачно+19°C56 %753 мм2.0 м/с2 %
  • 28мая
    Вторник
    +12°
    +25°
    Практически безоблачно
    ВремяПогодаТемператураВлажностьДавлениеВетер, м/сВероятность осадков
    00:00Ясно и безоблачно+14°C53 %753 мм3.5 м/с2 %
    03:00Практически безоблачно+11°C64 %753 мм2.8 м/с2 %
    06:00Практически безоблачно+13°C69 %753 мм2.6 м/с2 %
    09:00Ясно и безоблачно+20°C55 %753 мм2.0 м/с2 %
    12:00Практически безоблачно+24°C41 %752 мм1.6 м/с2 %
    15:00Практически безоблачно+24°C36 %751 мм1.9 м/с2 %
    18:00Ясно и безоблачно+24°C35 %750 мм2.0 м/с2 %
    21:00Ясно и безоблачно+21°C53 %750 мм1.2 м/с2 %
  • 29мая
    Среда
    +12°
    +27°
    Облачно с прояснениями
    ВремяПогодаТемператураВлажностьДавлениеВетер, м/сВероятность осадков
    00:00Практически безоблачно+14°C65 %749 мм2.2 м/с2 %
    03:00Ясно и безоблачно+13°C76 %749 мм1.5 м/с2 %
    06:00Практически безоблачно+15°C74 %748 мм1.5 м/с2 %
    09:00Облачно с прояснениями+22°C54 %749 мм1.0 м/с2 %
    12:00Небольшая облачность+26°C35 %748 мм0.8 м/с2 %
    15:00Облачно с прояснениями+26°C32 %747 мм1.3 м/с7 %
    18:00Практически безоблачно+26°C36 %746 мм1.3 м/с10 %
    21:00Ясно и безоблачно+22°C53 %746 мм3.0 м/с5 %
  • 30мая
    Четверг
    +12°
    +27°
    Небольшая облачность
    ВремяПогодаТемператураВлажностьДавлениеВетер, м/сВероятность осадков
    00:00Ясно и безоблачно+16°C72 %746 мм2.9 м/с2 %
    03:00Ясно и безоблачно+12°C85 %745 мм1.9 м/с2 %
    06:00Ясно и безоблачно+14°C83 %745 мм1.9 м/с2 %
    09:00Практически безоблачно+22°C60 %746 мм1.6 м/с2 %
    12:00Практически безоблачно+26°C39 %745 мм2.0 м/с14 %
    15:00Небольшая облачность+26°C37 %745 мм2.6 м/с19 %
    18:00Небольшая облачность+25°C40 %745 мм1.1 м/с22 %
    21:00Практически безоблачно+22°C57 %745 мм2.6 м/с2 %
  • 31мая
    Пятница
    +13°
    +28°
    Ясно и безоблачно
    ВремяПогодаТемператураВлажностьДавлениеВетер, м/сВероятность осадков
    00:00Ясно и безоблачно+16°C71 %745 мм1.8 м/с2 %
    03:00Ясно и безоблачно+13°C84 %745 мм1.9 м/с2 %
    06:00Ясно и безоблачно+14°C76 %745 мм1.7 м/с2 %
    09:00Небольшая облачность+22°C42 %746 мм2.0 м/с2 %
    12:00Облачно с прояснениями+26°C29 %746 мм3.1 м/с16 %
    15:00Ясно и безоблачно+28°C27 %746 мм2.9 м/с26 %
    18:00Небольшая облачность+27°C31 %746 мм3.1 м/с30 %
    21:00Практически безоблачно+22°C56 %746 мм1.8 м/с8 %
Мы используем cookies
Соглашаюсь